sensor_id;sensor_type;location;lat;lon;timestamp;P1;durP1;ratioP1;P2;durP2;ratioP2
54795;SDS011;40693;43.884;20.340;2023-07-13T00:02:22;11.20;;;8.00;;
54795;SDS011;40693;43.884;20.340;2023-07-13T00:04:49;14.05;;;7.22;;
54795;SDS011;40693;43.884;20.340;2023-07-13T00:07:15;11.70;;;6.90;;
54795;SDS011;40693;43.884;20.340;2023-07-13T00:09:45;14.02;;;8.15;;
54795;SDS011;40693;43.884;20.340;2023-07-13T00:15:12;9.27;;;7.53;;
54795;SDS011;40693;43.884;20.340;2023-07-13T00:17:41;11.02;;;7.18;;
54795;SDS011;40693;43.884;20.340;2023-07-13T00:20:09;11.25;;;8.30;;
54795;SDS011;40693;43.884;20.340;2023-07-13T00:22:36;12.02;;;8.07;;
54795;SDS011;40693;43.884;20.340;2023-07-13T00:25:02;11.20;;;7.50;;
54795;SDS011;40693;43.884;20.340;2023-07-13T00:27:28;11.43;;;8.43;;
54795;SDS011;40693;43.884;20.340;2023-07-13T00:29:56;11.38;;;7.55;;
54795;SDS011;40693;43.884;20.340;2023-07-13T00:32:22;14.27;;;8.02;;
54795;SDS011;40693;43.884;20.340;2023-07-13T00:34:50;10.40;;;7.03;;
54795;SDS011;40693;43.884;20.340;2023-07-13T00:37:16;15.63;;;7.97;;
54795;SDS011;40693;43.884;20.340;2023-07-13T00:39:43;12.27;;;8.60;;
54795;SDS011;40693;43.884;20.340;2023-07-13T00:42:08;13.93;;;8.27;;
54795;SDS011;40693;43.884;20.340;2023-07-13T00:44:34;10.98;;;8.82;;
54795;SDS011;40693;43.884;20.340;2023-07-13T00:47:00;11.63;;;6.90;;
54795;SDS011;40693;43.884;20.340;2023-07-13T00:49:27;15.25;;;7.20;;
54795;SDS011;40693;43.884;20.340;2023-07-13T00:52:04;14.18;;;7.28;;
54795;SDS011;40693;43.884;20.340;2023-07-13T00:54:33;8.40;;;6.38;;
54795;SDS011;40693;43.884;20.340;2023-07-13T00:57:07;17.48;;;8.30;;
54795;SDS011;40693;43.884;20.340;2023-07-13T00:59:36;9.38;;;7.35;;
54795;SDS011;40693;43.884;20.340;2023-07-13T01:02:04;9.77;;;7.80;;
54795;SDS011;40693;43.884;20.340;2023-07-13T01:04:30;12.13;;;7.95;;
54795;SDS011;40693;43.884;20.340;2023-07-13T01:06:56;13.25;;;8.45;;
54795;SDS011;40693;43.884;20.340;2023-07-13T01:09:23;14.77;;;8.35;;
54795;SDS011;40693;43.884;20.340;2023-07-13T01:11:48;11.70;;;8.52;;
54795;SDS011;40693;43.884;20.340;2023-07-13T01:14:14;9.75;;;7.53;;
54795;SDS011;40693;43.884;20.340;2023-07-13T01:16:42;11.90;;;7.82;;
54795;SDS011;40693;43.884;20.340;2023-07-13T01:19:25;10.07;;;7.97;;
54795;SDS011;40693;43.884;20.340;2023-07-13T01:22:05;15.25;;;8.20;;
54795;SDS011;40693;43.884;20.340;2023-07-13T01:24:36;10.70;;;8.07;;
54795;SDS011;40693;43.884;20.340;2023-07-13T01:27:03;8.20;;;6.93;;
54795;SDS011;40693;43.884;20.340;2023-07-13T01:29:31;13.68;;;8.40;;
54795;SDS011;40693;43.884;20.340;2023-07-13T01:31:58;11.18;;;7.85;;
54795;SDS011;40693;43.884;20.340;2023-07-13T01:34:25;12.27;;;7.68;;
54795;SDS011;40693;43.884;20.340;2023-07-13T01:36:52;13.45;;;8.43;;
54795;SDS011;40693;43.884;20.340;2023-07-13T01:39:20;12.30;;;7.40;;
54795;SDS011;40693;43.884;20.340;2023-07-13T01:41:47;11.02;;;7.35;;
54795;SDS011;40693;43.884;20.340;2023-07-13T01:44:15;10.85;;;7.25;;
54795;SDS011;40693;43.884;20.340;2023-07-13T01:46:41;10.23;;;7.82;;
54795;SDS011;40693;43.884;20.340;2023-07-13T01:49:07;9.85;;;6.82;;
54795;SDS011;40693;43.884;20.340;2023-07-13T01:51:33;10.60;;;7.03;;
54795;SDS011;40693;43.884;20.340;2023-07-13T01:53:58;8.48;;;7.20;;
54795;SDS011;40693;43.884;20.340;2023-07-13T01:56:24;11.93;;;7.32;;
54795;SDS011;40693;43.884;20.340;2023-07-13T01:58:50;10.25;;;7.55;;
54795;SDS011;40693;43.884;20.340;2023-07-13T02:01:17;8.82;;;7.18;;
54795;SDS011;40693;43.884;20.340;2023-07-13T02:03:43;12.23;;;7.28;;
54795;SDS011;40693;43.884;20.340;2023-07-13T02:06:09;16.00;;;8.65;;
54795;SDS011;40693;43.884;20.340;2023-07-13T02:08:34;11.95;;;8.23;;
54795;SDS011;40693;43.884;20.340;2023-07-13T02:11:02;12.05;;;7.72;;
54795;SDS011;40693;43.884;20.340;2023-07-13T02:13:28;10.65;;;7.45;;
54795;SDS011;40693;43.884;20.340;2023-07-13T02:15:55;10.30;;;6.30;;
54795;SDS011;40693;43.884;20.340;2023-07-13T02:18:21;12.18;;;8.18;;
54795;SDS011;40693;43.884;20.340;2023-07-13T02:20:46;9.82;;;7.18;;
54795;SDS011;40693;43.884;20.340;2023-07-13T02:23:12;14.02;;;8.25;;
54795;SDS011;40693;43.884;20.340;2023-07-13T02:25:38;16.25;;;9.20;;
54795;SDS011;40693;43.884;20.340;2023-07-13T02:28:04;14.25;;;9.38;;
54795;SDS011;40693;43.884;20.340;2023-07-13T02:30:30;13.10;;;10.27;;
54795;SDS011;40693;43.884;20.340;2023-07-13T02:32:56;11.10;;;8.00;;
54795;SDS011;40693;43.884;20.340;2023-07-13T02:35:22;12.60;;;9.90;;
54795;SDS011;40693;43.884;20.340;2023-07-13T02:37:48;14.27;;;9.23;;
54795;SDS011;40693;43.884;20.340;2023-07-13T02:40:14;11.82;;;9.82;;
54795;SDS011;40693;43.884;20.340;2023-07-13T02:42:40;13.88;;;9.35;;
54795;SDS011;40693;43.884;20.340;2023-07-13T02:45:06;15.30;;;10.52;;
54795;SDS011;40693;43.884;20.340;2023-07-13T02:47:33;13.00;;;9.00;;
54795;SDS011;40693;43.884;20.340;2023-07-13T02:49:58;15.75;;;8.88;;
54795;SDS011;40693;43.884;20.340;2023-07-13T02:52:24;10.93;;;8.70;;
54795;SDS011;40693;43.884;20.340;2023-07-13T02:54:50;12.88;;;8.63;;
54795;SDS011;40693;43.884;20.340;2023-07-13T02:57:16;18.73;;;10.15;;
54795;SDS011;40693;43.884;20.340;2023-07-13T02:59:45;17.42;;;9.13;;
54795;SDS011;40693;43.884;20.340;2023-07-13T03:02:11;10.15;;;8.27;;
54795;SDS011;40693;43.884;20.340;2023-07-13T03:04:37;10.82;;;8.10;;
54795;SDS011;40693;43.884;20.340;2023-07-13T03:07:03;13.05;;;8.60;;
54795;SDS011;40693;43.884;20.340;2023-07-13T03:09:29;12.27;;;8.32;;
54795;SDS011;40693;43.884;20.340;2023-07-13T03:11:56;10.63;;;8.32;;
54795;SDS011;40693;43.884;20.340;2023-07-13T03:14:22;13.07;;;8.38;;
54795;SDS011;40693;43.884;20.340;2023-07-13T03:16:48;11.77;;;8.38;;
54795;SDS011;40693;43.884;20.340;2023-07-13T03:19:14;11.35;;;7.53;;
54795;SDS011;40693;43.884;20.340;2023-07-13T03:21:40;12.23;;;8.05;;
54795;SDS011;40693;43.884;20.340;2023-07-13T03:24:06;12.13;;;8.68;;
54795;SDS011;40693;43.884;20.340;2023-07-13T03:26:32;13.50;;;8.75;;
54795;SDS011;40693;43.884;20.340;2023-07-13T03:28:58;15.20;;;9.38;;
54795;SDS011;40693;43.884;20.340;2023-07-13T03:31:30;16.05;;;8.77;;
54795;SDS011;40693;43.884;20.340;2023-07-13T03:33:58;11.80;;;8.68;;
54795;SDS011;40693;43.884;20.340;2023-07-13T03:36:25;19.83;;;9.13;;
54795;SDS011;40693;43.884;20.340;2023-07-13T03:38:53;12.25;;;9.15;;
54795;SDS011;40693;43.884;20.340;2023-07-13T03:41:21;17.02;;;9.43;;
54795;SDS011;40693;43.884;20.340;2023-07-13T03:43:48;14.52;;;9.00;;
54795;SDS011;40693;43.884;20.340;2023-07-13T03:46:14;11.75;;;8.65;;
54795;SDS011;40693;43.884;20.340;2023-07-13T03:48:41;17.02;;;8.88;;
54795;SDS011;40693;43.884;20.340;2023-07-13T03:51:08;16.02;;;9.75;;
54795;SDS011;40693;43.884;20.340;2023-07-13T03:53:38;11.50;;;8.45;;
54795;SDS011;40693;43.884;20.340;2023-07-13T03:56:05;13.50;;;9.30;;
54795;SDS011;40693;43.884;20.340;2023-07-13T03:58:33;15.77;;;9.57;;
54795;SDS011;40693;43.884;20.340;2023-07-13T04:01:01;13.35;;;9.70;;
54795;SDS011;40693;43.884;20.340;2023-07-13T04:03:28;13.82;;;9.82;;
54795;SDS011;40693;43.884;20.340;2023-07-13T04:05:58;12.52;;;9.13;;
54795;SDS011;40693;43.884;20.340;2023-07-13T04:08:29;10.95;;;8.85;;
54795;SDS011;40693;43.884;20.340;2023-07-13T04:10:58;12.07;;;8.77;;
54795;SDS011;40693;43.884;20.340;2023-07-13T04:13:24;12.50;;;9.48;;
54795;SDS011;40693;43.884;20.340;2023-07-13T04:15:50;14.82;;;9.85;;
54795;SDS011;40693;43.884;20.340;2023-07-13T04:18:17;13.13;;;8.77;;
54795;SDS011;40693;43.884;20.340;2023-07-13T04:20:44;15.45;;;9.63;;
54795;SDS011;40693;43.884;20.340;2023-07-13T04:23:11;13.98;;;9.30;;
54795;SDS011;40693;43.884;20.340;2023-07-13T04:25:37;12.70;;;8.45;;
54795;SDS011;40693;43.884;20.340;2023-07-13T04:28:04;15.43;;;8.98;;
54795;SDS011;40693;43.884;20.340;2023-07-13T04:30:30;15.63;;;8.20;;
54795;SDS011;40693;43.884;20.340;2023-07-13T04:32:56;11.52;;;8.63;;
54795;SDS011;40693;43.884;20.340;2023-07-13T04:35:22;11.88;;;8.43;;
54795;SDS011;40693;43.884;20.340;2023-07-13T04:37:48;13.60;;;9.60;;
54795;SDS011;40693;43.884;20.340;2023-07-13T04:40:16;12.63;;;9.30;;
54795;SDS011;40693;43.884;20.340;2023-07-13T04:42:42;13.82;;;9.68;;
54795;SDS011;40693;43.884;20.340;2023-07-13T04:45:09;15.82;;;8.93;;
54795;SDS011;40693;43.884;20.340;2023-07-13T04:47:35;19.88;;;10.32;;
54795;SDS011;40693;43.884;20.340;2023-07-13T04:50:01;14.23;;;9.18;;
54795;SDS011;40693;43.884;20.340;2023-07-13T04:52:27;17.85;;;11.68;;
54795;SDS011;40693;43.884;20.340;2023-07-13T04:54:53;18.50;;;12.27;;
54795;SDS011;40693;43.884;20.340;2023-07-13T04:57:19;16.63;;;10.95;;
54795;SDS011;40693;43.884;20.340;2023-07-13T04:59:44;17.27;;;12.80;;
54795;SDS011;40693;43.884;20.340;2023-07-13T05:02:10;23.60;;;12.10;;
54795;SDS011;40693;43.884;20.340;2023-07-13T05:04:36;16.20;;;10.73;;
54795;SDS011;40693;43.884;20.340;2023-07-13T05:07:02;19.42;;;12.00;;
54795;SDS011;40693;43.884;20.340;2023-07-13T05:09:28;17.17;;;11.45;;
54795;SDS011;40693;43.884;20.340;2023-07-13T05:11:54;12.73;;;10.38;;
54795;SDS011;40693;43.884;20.340;2023-07-13T05:14:19;13.40;;;10.45;;
54795;SDS011;40693;43.884;20.340;2023-07-13T05:16:45;12.35;;;9.50;;
54795;SDS011;40693;43.884;20.340;2023-07-13T05:19:11;13.50;;;8.65;;
54795;SDS011;40693;43.884;20.340;2023-07-13T05:21:37;14.05;;;10.00;;
54795;SDS011;40693;43.884;20.340;2023-07-13T05:24:02;11.93;;;8.60;;
54795;SDS011;40693;43.884;20.340;2023-07-13T05:26:28;12.70;;;9.15;;
54795;SDS011;40693;43.884;20.340;2023-07-13T05:28:54;14.35;;;10.30;;
54795;SDS011;40693;43.884;20.340;2023-07-13T05:31:20;16.77;;;9.57;;
54795;SDS011;40693;43.884;20.340;2023-07-13T05:33:45;12.57;;;9.15;;
54795;SDS011;40693;43.884;20.340;2023-07-13T05:36:11;8.95;;;7.65;;
54795;SDS011;40693;43.884;20.340;2023-07-13T05:38:37;20.77;;;11.45;;
54795;SDS011;40693;43.884;20.340;2023-07-13T05:41:03;16.08;;;9.25;;
54795;SDS011;40693;43.884;20.340;2023-07-13T05:43:29;15.48;;;9.35;;
54795;SDS011;40693;43.884;20.340;2023-07-13T05:45:56;15.13;;;7.47;;
54795;SDS011;40693;43.884;20.340;2023-07-13T05:48:22;12.90;;;7.50;;
54795;SDS011;40693;43.884;20.340;2023-07-13T05:50:48;12.75;;;8.40;;
54795;SDS011;40693;43.884;20.340;2023-07-13T05:53:14;12.75;;;6.70;;
54795;SDS011;40693;43.884;20.340;2023-07-13T05:55:41;9.85;;;7.88;;
54795;SDS011;40693;43.884;20.340;2023-07-13T05:58:08;12.82;;;8.43;;
54795;SDS011;40693;43.884;20.340;2023-07-13T06:00:33;17.50;;;8.98;;
54795;SDS011;40693;43.884;20.340;2023-07-13T06:02:59;16.80;;;10.43;;
54795;SDS011;40693;43.884;20.340;2023-07-13T06:05:25;11.13;;;8.68;;
54795;SDS011;40693;43.884;20.340;2023-07-13T06:07:52;12.60;;;8.25;;
54795;SDS011;40693;43.884;20.340;2023-07-13T06:10:17;12.88;;;9.02;;
54795;SDS011;40693;43.884;20.340;2023-07-13T06:12:43;13.82;;;8.38;;
54795;SDS011;40693;43.884;20.340;2023-07-13T06:15:09;17.80;;;8.70;;
54795;SDS011;40693;43.884;20.340;2023-07-13T06:17:35;13.38;;;9.32;;
54795;SDS011;40693;43.884;20.340;2023-07-13T06:20:00;13.82;;;8.40;;
54795;SDS011;40693;43.884;20.340;2023-07-13T06:22:26;19.00;;;10.45;;
54795;SDS011;40693;43.884;20.340;2023-07-13T06:24:52;17.05;;;8.13;;
54795;SDS011;40693;43.884;20.340;2023-07-13T06:27:18;13.40;;;8.20;;
54795;SDS011;40693;43.884;20.340;2023-07-13T06:29:43;13.70;;;8.13;;
54795;SDS011;40693;43.884;20.340;2023-07-13T06:32:10;14.50;;;9.13;;
54795;SDS011;40693;43.884;20.340;2023-07-13T06:34:36;11.88;;;8.05;;
54795;SDS011;40693;43.884;20.340;2023-07-13T06:37:02;13.65;;;8.20;;
54795;SDS011;40693;43.884;20.340;2023-07-13T06:39:27;12.70;;;8.00;;
54795;SDS011;40693;43.884;20.340;2023-07-13T06:41:53;13.32;;;9.07;;
54795;SDS011;40693;43.884;20.340;2023-07-13T06:44:19;10.10;;;8.52;;
54795;SDS011;40693;43.884;20.340;2023-07-13T06:46:45;14.05;;;8.20;;
54795;SDS011;40693;43.884;20.340;2023-07-13T06:49:10;10.65;;;7.93;;
54795;SDS011;40693;43.884;20.340;2023-07-13T06:51:36;12.93;;;8.68;;
54795;SDS011;40693;43.884;20.340;2023-07-13T06:54:02;12.52;;;9.02;;
54795;SDS011;40693;43.884;20.340;2023-07-13T06:56:28;13.25;;;10.00;;
54795;SDS011;40693;43.884;20.340;2023-07-13T06:58:53;14.73;;;8.57;;
54795;SDS011;40693;43.884;20.340;2023-07-13T07:01:19;12.00;;;8.18;;
54795;SDS011;40693;43.884;20.340;2023-07-13T07:03:45;13.27;;;8.20;;
54795;SDS011;40693;43.884;20.340;2023-07-13T07:08:44;12.48;;;7.80;;
54795;SDS011;40693;43.884;20.340;2023-07-13T07:11:16;19.25;;;9.15;;
54795;SDS011;40693;43.884;20.340;2023-07-13T07:13:45;12.77;;;8.13;;
54795;SDS011;40693;43.884;20.340;2023-07-13T07:16:11;15.13;;;7.25;;
54795;SDS011;40693;43.884;20.340;2023-07-13T07:18:37;15.45;;;7.53;;
54795;SDS011;40693;43.884;20.340;2023-07-13T07:21:03;16.10;;;7.55;;
54795;SDS011;40693;43.884;20.340;2023-07-13T07:23:29;11.98;;;7.03;;
54795;SDS011;40693;43.884;20.340;2023-07-13T07:25:55;14.00;;;7.93;;
54795;SDS011;40693;43.884;20.340;2023-07-13T07:28:21;13.85;;;8.23;;
54795;SDS011;40693;43.884;20.340;2023-07-13T07:30:47;15.85;;;6.93;;
54795;SDS011;40693;43.884;20.340;2023-07-13T07:33:14;12.93;;;8.10;;
54795;SDS011;40693;43.884;20.340;2023-07-13T07:35:39;19.33;;;8.13;;
54795;SDS011;40693;43.884;20.340;2023-07-13T07:38:05;12.07;;;8.25;;
54795;SDS011;40693;43.884;20.340;2023-07-13T07:40:36;15.40;;;9.95;;
54795;SDS011;40693;43.884;20.340;2023-07-13T07:43:03;17.95;;;11.00;;
54795;SDS011;40693;43.884;20.340;2023-07-13T07:45:28;17.73;;;10.75;;
54795;SDS011;40693;43.884;20.340;2023-07-13T07:47:54;12.93;;;9.38;;
54795;SDS011;40693;43.884;20.340;2023-07-13T07:50:23;17.60;;;10.07;;
54795;SDS011;40693;43.884;20.340;2023-07-13T07:52:52;18.02;;;10.00;;
54795;SDS011;40693;43.884;20.340;2023-07-13T07:55:18;15.23;;;10.05;;
54795;SDS011;40693;43.884;20.340;2023-07-13T07:57:44;10.73;;;7.93;;
54795;SDS011;40693;43.884;20.340;2023-07-13T08:00:10;11.98;;;7.07;;
54795;SDS011;40693;43.884;20.340;2023-07-13T08:02:36;13.77;;;7.55;;
54795;SDS011;40693;43.884;20.340;2023-07-13T08:05:01;18.30;;;11.50;;
54795;SDS011;40693;43.884;20.340;2023-07-13T08:07:29;16.23;;;10.13;;
54795;SDS011;40693;43.884;20.340;2023-07-13T08:09:56;20.05;;;10.63;;
54795;SDS011;40693;43.884;20.340;2023-07-13T08:12:21;18.42;;;11.65;;
54795;SDS011;40693;43.884;20.340;2023-07-13T08:14:49;12.52;;;8.35;;
54795;SDS011;40693;43.884;20.340;2023-07-13T08:17:18;12.85;;;8.20;;
54795;SDS011;40693;43.884;20.340;2023-07-13T08:19:45;10.95;;;7.32;;
54795;SDS011;40693;43.884;20.340;2023-07-13T08:22:11;10.70;;;7.90;;
54795;SDS011;40693;43.884;20.340;2023-07-13T08:24:37;11.82;;;8.13;;
54795;SDS011;40693;43.884;20.340;2023-07-13T08:27:02;11.27;;;7.55;;
54795;SDS011;40693;43.884;20.340;2023-07-13T08:29:28;14.32;;;7.65;;
54795;SDS011;40693;43.884;20.340;2023-07-13T08:31:57;14.43;;;8.77;;
54795;SDS011;40693;43.884;20.340;2023-07-13T08:34:23;13.70;;;7.60;;
54795;SDS011;40693;43.884;20.340;2023-07-13T08:36:49;14.70;;;8.13;;
54795;SDS011;40693;43.884;20.340;2023-07-13T08:39:14;11.15;;;7.45;;
54795;SDS011;40693;43.884;20.340;2023-07-13T08:41:41;10.18;;;6.53;;
54795;SDS011;40693;43.884;20.340;2023-07-13T08:44:15;15.88;;;7.00;;
54795;SDS011;40693;43.884;20.340;2023-07-13T08:46:47;8.65;;;6.57;;
54795;SDS011;40693;43.884;20.340;2023-07-13T08:49:15;14.65;;;6.72;;
54795;SDS011;40693;43.884;20.340;2023-07-13T08:51:53;12.35;;;6.68;;
54795;SDS011;40693;43.884;20.340;2023-07-13T08:56:53;11.05;;;7.18;;
54795;SDS011;40693;43.884;20.340;2023-07-13T08:59:24;11.70;;;6.70;;
54795;SDS011;40693;43.884;20.340;2023-07-13T09:04:27;16.42;;;6.75;;
54795;SDS011;40693;43.884;20.340;2023-07-13T09:15:44;14.25;;;6.88;;
54795;SDS011;40693;43.884;20.340;2023-07-13T09:18:25;14.45;;;6.40;;
54795;SDS011;40693;43.884;20.340;2023-07-13T09:21:03;13.85;;;6.07;;
54795;SDS011;40693;43.884;20.340;2023-07-13T09:23:34;12.35;;;6.43;;
54795;SDS011;40693;43.884;20.340;2023-07-13T09:26:05;9.32;;;6.35;;
54795;SDS011;40693;43.884;20.340;2023-07-13T09:28:38;13.00;;;6.72;;
54795;SDS011;40693;43.884;20.340;2023-07-13T09:33:42;12.20;;;6.68;;
54795;SDS011;40693;43.884;20.340;2023-07-13T09:36:22;14.05;;;7.07;;
54795;SDS011;40693;43.884;20.340;2023-07-13T09:39:02;9.40;;;6.30;;
54795;SDS011;40693;43.884;20.340;2023-07-13T09:44:14;11.07;;;6.95;;
54795;SDS011;40693;43.884;20.340;2023-07-13T09:47:00;20.92;;;7.95;;
54795;SDS011;40693;43.884;20.340;2023-07-13T09:49:28;10.93;;;7.40;;
54795;SDS011;40693;43.884;20.340;2023-07-13T09:52:02;11.15;;;7.03;;
54795;SDS011;40693;43.884;20.340;2023-07-13T09:54:32;8.93;;;6.65;;
54795;SDS011;40693;43.884;20.340;2023-07-13T09:57:00;11.32;;;7.15;;
54795;SDS011;40693;43.884;20.340;2023-07-13T09:59:31;12.48;;;7.63;;
54795;SDS011;40693;43.884;20.340;2023-07-13T10:02:22;8.55;;;7.40;;
54795;SDS011;40693;43.884;20.340;2023-07-13T10:04:58;11.55;;;7.00;;
54795;SDS011;40693;43.884;20.340;2023-07-13T10:07:26;15.10;;;8.13;;
54795;SDS011;40693;43.884;20.340;2023-07-13T10:09:53;14.43;;;8.88;;
54795;SDS011;40693;43.884;20.340;2023-07-13T10:12:20;18.50;;;7.78;;
54795;SDS011;40693;43.884;20.340;2023-07-13T10:14:48;11.50;;;8.13;;
54795;SDS011;40693;43.884;20.340;2023-07-13T10:17:31;15.35;;;8.32;;
54795;SDS011;40693;43.884;20.340;2023-07-13T10:20:03;12.02;;;7.40;;
54795;SDS011;40693;43.884;20.340;2023-07-13T10:25:25;13.20;;;6.85;;
54795;SDS011;40693;43.884;20.340;2023-07-13T10:27:52;14.80;;;8.43;;
54795;SDS011;40693;43.884;20.340;2023-07-13T10:30:25;12.45;;;7.95;;
54795;SDS011;40693;43.884;20.340;2023-07-13T10:32:57;12.15;;;7.15;;
54795;SDS011;40693;43.884;20.340;2023-07-13T10:35:26;10.43;;;7.45;;
54795;SDS011;40693;43.884;20.340;2023-07-13T10:40:28;12.45;;;7.30;;
54795;SDS011;40693;43.884;20.340;2023-07-13T10:43:00;11.40;;;7.30;;
54795;SDS011;40693;43.884;20.340;2023-07-13T10:45:30;9.77;;;7.25;;
54795;SDS011;40693;43.884;20.340;2023-07-13T10:48:00;9.65;;;7.60;;
54795;SDS011;40693;43.884;20.340;2023-07-13T10:50:28;10.63;;;7.57;;
54795;SDS011;40693;43.884;20.340;2023-07-13T10:52:55;12.55;;;7.20;;
54795;SDS011;40693;43.884;20.340;2023-07-13T10:55:35;15.07;;;7.88;;
54795;SDS011;40693;43.884;20.340;2023-07-13T10:58:03;14.65;;;7.85;;
54795;SDS011;40693;43.884;20.340;2023-07-13T11:00:46;10.95;;;6.80;;
54795;SDS011;40693;43.884;20.340;2023-07-13T11:03:15;11.40;;;8.25;;
54795;SDS011;40693;43.884;20.340;2023-07-13T11:05:43;12.52;;;7.35;;
54795;SDS011;40693;43.884;20.340;2023-07-13T11:13:36;10.35;;;7.32;;
54795;SDS011;40693;43.884;20.340;2023-07-13T11:21:27;15.52;;;8.35;;
54795;SDS011;40693;43.884;20.340;2023-07-13T11:24:13;16.67;;;7.05;;
54795;SDS011;40693;43.884;20.340;2023-07-13T11:31:42;12.43;;;7.20;;
54795;SDS011;40693;43.884;20.340;2023-07-13T11:34:16;10.20;;;7.22;;
54795;SDS011;40693;43.884;20.340;2023-07-13T11:36:51;15.90;;;7.93;;
54795;SDS011;40693;43.884;20.340;2023-07-13T11:41:57;8.38;;;6.93;;
54795;SDS011;40693;43.884;20.340;2023-07-13T11:44:29;11.95;;;7.75;;
54795;SDS011;40693;43.884;20.340;2023-07-13T11:46:57;11.13;;;6.95;;
54795;SDS011;40693;43.884;20.340;2023-07-13T11:49:32;11.20;;;6.80;;
54795;SDS011;40693;43.884;20.340;2023-07-13T11:52:11;9.00;;;6.45;;
54795;SDS011;40693;43.884;20.340;2023-07-13T11:54:54;13.70;;;7.38;;
54795;SDS011;40693;43.884;20.340;2023-07-13T11:57:27;12.00;;;6.68;;
54795;SDS011;40693;43.884;20.340;2023-07-13T12:00:04;14.98;;;7.18;;
54795;SDS011;40693;43.884;20.340;2023-07-13T12:02:56;13.98;;;7.10;;
54795;SDS011;40693;43.884;20.340;2023-07-13T12:05:25;12.45;;;7.38;;
54795;SDS011;40693;43.884;20.340;2023-07-13T12:07:51;11.00;;;6.75;;
54795;SDS011;40693;43.884;20.340;2023-07-13T12:10:24;11.05;;;7.10;;
54795;SDS011;40693;43.884;20.340;2023-07-13T12:12:55;15.15;;;7.25;;
54795;SDS011;40693;43.884;20.340;2023-07-13T12:15:23;9.95;;;6.63;;
54795;SDS011;40693;43.884;20.340;2023-07-13T12:17:53;11.13;;;6.90;;
54795;SDS011;40693;43.884;20.340;2023-07-13T12:20:23;10.30;;;7.00;;
54795;SDS011;40693;43.884;20.340;2023-07-13T12:22:52;10.40;;;6.72;;
54795;SDS011;40693;43.884;20.340;2023-07-13T12:25:19;10.95;;;6.65;;
54795;SDS011;40693;43.884;20.340;2023-07-13T12:27:48;16.55;;;7.57;;
54795;SDS011;40693;43.884;20.340;2023-07-13T12:30:26;10.10;;;6.68;;
54795;SDS011;40693;43.884;20.340;2023-07-13T12:32:59;11.15;;;6.97;;
54795;SDS011;40693;43.884;20.340;2023-07-13T12:35:30;14.02;;;6.53;;
54795;SDS011;40693;43.884;20.340;2023-07-13T12:37:58;8.57;;;6.60;;
54795;SDS011;40693;43.884;20.340;2023-07-13T12:40:27;11.98;;;6.53;;
54795;SDS011;40693;43.884;20.340;2023-07-13T12:42:58;9.00;;;6.25;;
54795;SDS011;40693;43.884;20.340;2023-07-13T12:45:26;8.35;;;6.85;;
54795;SDS011;40693;43.884;20.340;2023-07-13T12:48:03;14.73;;;6.25;;
54795;SDS011;40693;43.884;20.340;2023-07-13T12:50:38;8.63;;;6.07;;
54795;SDS011;40693;43.884;20.340;2023-07-13T12:53:16;9.77;;;7.07;;
54795;SDS011;40693;43.884;20.340;2023-07-13T12:56:08;9.32;;;5.95;;
54795;SDS011;40693;43.884;20.340;2023-07-13T12:58:38;11.57;;;7.43;;
54795;SDS011;40693;43.884;20.340;2023-07-13T13:01:11;11.10;;;6.45;;
54795;SDS011;40693;43.884;20.340;2023-07-13T13:03:39;14.10;;;6.05;;
54795;SDS011;40693;43.884;20.340;2023-07-13T13:08:43;14.90;;;9.63;;
54795;SDS011;40693;43.884;20.340;2023-07-13T13:11:16;10.18;;;8.35;;
54795;SDS011;40693;43.884;20.340;2023-07-13T13:13:43;9.10;;;6.68;;
54795;SDS011;40693;43.884;20.340;2023-07-13T13:16:14;12.93;;;9.07;;
54795;SDS011;40693;43.884;20.340;2023-07-13T13:18:51;14.13;;;11.40;;
54795;SDS011;40693;43.884;20.340;2023-07-13T13:21:19;13.10;;;7.22;;
54795;SDS011;40693;43.884;20.340;2023-07-13T13:23:45;13.98;;;7.20;;
54795;SDS011;40693;43.884;20.340;2023-07-13T13:26:14;12.68;;;7.05;;
54795;SDS011;40693;43.884;20.340;2023-07-13T13:28:41;15.55;;;7.97;;
54795;SDS011;40693;43.884;20.340;2023-07-13T13:31:09;9.75;;;7.07;;
54795;SDS011;40693;43.884;20.340;2023-07-13T13:33:39;12.25;;;6.80;;
54795;SDS011;40693;43.884;20.340;2023-07-13T13:36:17;15.43;;;6.97;;
54795;SDS011;40693;43.884;20.340;2023-07-13T13:38:44;16.50;;;7.80;;
54795;SDS011;40693;43.884;20.340;2023-07-13T13:41:11;10.68;;;6.65;;
54795;SDS011;40693;43.884;20.340;2023-07-13T13:43:38;8.77;;;6.72;;
54795;SDS011;40693;43.884;20.340;2023-07-13T13:46:13;12.30;;;7.57;;
54795;SDS011;40693;43.884;20.340;2023-07-13T13:48:41;11.52;;;7.40;;
54795;SDS011;40693;43.884;20.340;2023-07-13T13:53:47;19.10;;;7.53;;
54795;SDS011;40693;43.884;20.340;2023-07-13T13:56:13;10.57;;;7.90;;
54795;SDS011;40693;43.884;20.340;2023-07-13T13:58:39;9.13;;;6.65;;
54795;SDS011;40693;43.884;20.340;2023-07-13T14:01:10;9.45;;;7.07;;
54795;SDS011;40693;43.884;20.340;2023-07-13T14:03:44;11.30;;;6.30;;
54795;SDS011;40693;43.884;20.340;2023-07-13T14:06:13;9.60;;;6.80;;
54795;SDS011;40693;43.884;20.340;2023-07-13T14:08:40;13.93;;;7.63;;
54795;SDS011;40693;43.884;20.340;2023-07-13T14:11:08;13.00;;;7.10;;
54795;SDS011;40693;43.884;20.340;2023-07-13T14:13:38;12.55;;;7.38;;
54795;SDS011;40693;43.884;20.340;2023-07-13T14:16:11;13.50;;;6.25;;
54795;SDS011;40693;43.884;20.340;2023-07-13T14:21:13;10.68;;;6.90;;
54795;SDS011;40693;43.884;20.340;2023-07-13T14:23:40;11.85;;;7.60;;
54795;SDS011;40693;43.884;20.340;2023-07-13T14:26:10;13.82;;;7.88;;
54795;SDS011;40693;43.884;20.340;2023-07-13T14:28:43;17.73;;;9.05;;
54795;SDS011;40693;43.884;20.340;2023-07-13T14:31:11;14.15;;;7.75;;
54795;SDS011;40693;43.884;20.340;2023-07-13T14:33:41;10.02;;;8.25;;
54795;SDS011;40693;43.884;20.340;2023-07-13T14:38:45;11.07;;;7.45;;
54795;SDS011;40693;43.884;20.340;2023-07-13T14:41:10;10.73;;;7.57;;
54795;SDS011;40693;43.884;20.340;2023-07-13T14:43:36;11.20;;;6.85;;
54795;SDS011;40693;43.884;20.340;2023-07-13T14:46:02;10.98;;;6.43;;
54795;SDS011;40693;43.884;20.340;2023-07-13T14:48:29;12.88;;;6.88;;
54795;SDS011;40693;43.884;20.340;2023-07-13T14:50:57;12.45;;;7.10;;
54795;SDS011;40693;43.884;20.340;2023-07-13T14:53:27;13.52;;;7.40;;
54795;SDS011;40693;43.884;20.340;2023-07-13T14:55:53;14.70;;;7.78;;
54795;SDS011;40693;43.884;20.340;2023-07-13T14:58:18;12.73;;;7.00;;
54795;SDS011;40693;43.884;20.340;2023-07-13T15:00:44;12.73;;;7.07;;
54795;SDS011;40693;43.884;20.340;2023-07-13T15:03:21;12.27;;;7.75;;
54795;SDS011;40693;43.884;20.340;2023-07-13T15:05:50;14.95;;;8.13;;
54795;SDS011;40693;43.884;20.340;2023-07-13T15:08:18;17.83;;;7.60;;
54795;SDS011;40693;43.884;20.340;2023-07-13T15:10:43;13.55;;;8.95;;
54795;SDS011;40693;43.884;20.340;2023-07-13T15:13:19;12.25;;;7.68;;
54795;SDS011;40693;43.884;20.340;2023-07-13T15:15:47;13.50;;;6.90;;
54795;SDS011;40693;43.884;20.340;2023-07-13T15:18:31;10.07;;;7.10;;
54795;SDS011;40693;43.884;20.340;2023-07-13T15:20:58;9.07;;;7.53;;
54795;SDS011;40693;43.884;20.340;2023-07-13T15:23:27;13.00;;;7.82;;
54795;SDS011;40693;43.884;20.340;2023-07-13T15:25:53;16.05;;;7.97;;
54795;SDS011;40693;43.884;20.340;2023-07-13T15:28:19;13.15;;;8.25;;